createdAt,value
2023-01-06T00:00:00.905Z,92.96
2023-01-06T00:01:00.921Z,92.24
2023-01-06T00:02:00.896Z,92.14
2023-01-06T00:03:00.855Z,92.04
2023-01-06T00:04:00.889Z,91.63
2023-01-06T00:05:00.835Z,91.74
2023-01-06T00:06:00.860Z,92.29
2023-01-06T00:07:00.807Z,93.10
2023-01-06T00:08:00.806Z,92.49
2023-01-06T00:09:00.797Z,93.31
2023-01-06T00:10:00.774Z,93.16
2023-01-06T00:11:00.765Z,92.55
2023-01-06T00:12:00.776Z,93.31
2023-01-06T00:13:00.745Z,93.31
2023-01-06T00:14:00.728Z,93.82
2023-01-06T00:15:00.714Z,93.47
2023-01-06T00:16:00.765Z,93.16
2023-01-06T00:17:00.730Z,92.24
2023-01-06T00:18:00.695Z,93.26
2023-01-06T00:19:00.681Z,93.16
2023-01-06T00:20:00.658Z,94.18
2023-01-06T00:21:00.659Z,92.76
2023-01-06T00:22:00.635Z,92.76
2023-01-06T00:23:00.646Z,92.24
2023-01-06T00:24:00.608Z,93.06
2023-01-06T00:25:00.596Z,92.59
2023-01-06T00:26:00.593Z,93.47
2023-01-06T00:27:00.576Z,93.57
2023-01-06T00:28:00.576Z,93.77
2023-01-06T00:29:00.677Z,93.92
2023-01-06T00:30:00.544Z,92.76
2023-01-06T00:31:00.593Z,92.55
2023-01-06T00:32:00.516Z,92.45
2023-01-06T00:33:00.518Z,93.26
2023-01-06T00:34:00.495Z,93.82
2023-01-06T00:35:00.551Z,94.43
2023-01-06T00:36:00.475Z,93.88
2023-01-06T00:37:00.466Z,92.65
2023-01-06T00:38:00.446Z,92.65
2023-01-06T00:39:00.435Z,92.04
2023-01-06T00:40:00.425Z,91.74
2023-01-06T00:41:00.436Z,92.45
2023-01-06T00:42:00.406Z,92.04
2023-01-06T00:43:00.396Z,92.04
2023-01-06T00:44:00.374Z,92.35
2023-01-06T00:45:00.369Z,92.35
2023-01-06T00:46:00.410Z,91.74
2023-01-06T00:47:00.364Z,92.86
2023-01-06T00:48:00.344Z,92.76
2023-01-06T00:49:05.049Z,92.41
2023-01-06T00:50:01.314Z,91.89
2023-01-06T00:51:00.305Z,91.74
2023-01-06T00:52:00.305Z,92.86
2023-01-06T00:53:00.276Z,94.23
2023-01-06T00:54:00.277Z,94.38
2023-01-06T00:55:00.259Z,93.47
2023-01-06T00:56:00.251Z,92.71
2023-01-06T00:57:00.235Z,92.91
2023-01-06T00:58:00.265Z,92.30
2023-01-06T00:59:00.205Z,92.10
2023-01-06T01:00:00.265Z,91.89
2023-01-06T01:01:00.187Z,91.59
2023-01-06T01:02:00.258Z,91.59
2023-01-06T01:03:00.206Z,91.79
2023-01-06T01:04:00.165Z,91.69
2023-01-06T01:05:00.133Z,92.10
2023-01-06T01:06:00.125Z,92.10
2023-01-06T01:07:00.115Z,92.55
2023-01-06T01:08:00.128Z,92.96
2023-01-06T01:09:00.100Z,93.67
2023-01-06T01:10:00.134Z,93.88
2023-01-06T01:11:00.088Z,93.77
2023-01-06T01:12:00.111Z,93.98
2023-01-06T01:13:00.067Z,93.77
2023-01-06T01:14:00.073Z,94.70
2023-01-06T01:15:00.033Z,94.18
2023-01-06T01:16:00.118Z,93.77
2023-01-06T01:17:00.007Z,94.08
2023-01-06T01:17:59.987Z,93.63
2023-01-06T01:18:59.989Z,94.18
2023-01-06T01:19:59.972Z,93.84
2023-01-06T01:20:59.975Z,94.49
2023-01-06T01:21:59.953Z,94.29
2023-01-06T01:22:59.933Z,93.63
2023-01-06T01:23:59.930Z,93.93
2023-01-06T01:24:59.907Z,93.73
2023-01-06T01:25:59.904Z,93.22
2023-01-06T01:26:59.915Z,92.91
2023-01-06T01:27:59.876Z,94.49
2023-01-06T01:28:59.867Z,94.90
2023-01-06T01:29:59.846Z,94.04
2023-01-06T01:30:59.911Z,94.34
2023-01-06T01:31:59.828Z,93.63
2023-01-06T01:32:59.836Z,94.55
2023-01-06T01:33:59.807Z,94.24
2023-01-06T01:34:59.800Z,93.84
2023-01-06T01:35:59.788Z,93.52
2023-01-06T01:36:59.774Z,92.81
2023-01-06T01:37:59.776Z,92.61
2023-01-06T01:38:59.750Z,92.41
2023-01-06T01:39:59.737Z,92.57
2023-01-06T01:40:59.738Z,91.96
2023-01-06T01:41:59.715Z,93.02
2023-01-06T01:42:59.707Z,93.43
2023-01-06T01:43:59.706Z,93.02
2023-01-06T01:44:59.687Z,93.63
2023-01-06T01:45:59.720Z,93.63
2023-01-06T01:46:59.663Z,92.77
2023-01-06T01:47:59.646Z,92.36
2023-01-06T01:48:59.637Z,91.96
2023-01-06T01:49:59.664Z,92.20
2023-01-06T01:50:59.617Z,92.71
2023-01-06T01:51:59.621Z,93.93
2023-01-06T01:52:59.600Z,93.63
2023-01-06T01:53:59.605Z,93.43
2023-01-06T01:54:59.571Z,93.93
2023-01-06T01:55:59.577Z,94.34
2023-01-06T01:56:59.547Z,94.04
2023-01-06T01:57:59.581Z,93.52
2023-01-06T01:58:59.516Z,93.63
2023-01-06T01:59:59.509Z,93.12
2023-01-06T02:00:59.498Z,92.91
2023-01-06T02:01:59.589Z,93.18
2023-01-06T02:02:59.545Z,93.07
2023-01-06T02:03:59.468Z,92.77
2023-01-06T02:04:59.528Z,93.07
2023-01-06T02:05:59.436Z,92.87
2023-01-06T02:06:59.448Z,92.26
2023-01-06T02:07:59.417Z,92.05
2023-01-06T02:08:59.406Z,92.77
2023-01-06T02:09:59.389Z,92.97
2023-01-06T02:10:59.389Z,92.87
2023-01-06T02:12:06.453Z,92.46
2023-01-06T02:12:59.365Z,93.07
2023-01-06T02:13:59.347Z,93.93
2023-01-06T02:14:59.344Z,94.50
2023-01-06T02:15:59.359Z,93.32
2023-01-06T02:16:59.320Z,94.14
2023-01-06T02:17:59.315Z,94.95
2023-01-06T02:18:59.286Z,94.45
2023-01-06T02:19:59.282Z,94.55
2023-01-06T02:20:59.274Z,93.69
2023-01-06T02:21:59.260Z,92.77
2023-01-06T02:22:59.276Z,93.18
2023-01-06T02:23:59.235Z,93.38
2023-01-06T02:24:59.225Z,92.97
2023-01-06T02:25:59.206Z,93.38
2023-01-06T02:26:59.231Z,92.77
2023-01-06T02:27:59.185Z,92.36
2023-01-06T02:28:59.207Z,92.97
2023-01-06T02:29:59.177Z,92.67
2023-01-06T02:30:59.187Z,93.48
2023-01-06T02:31:59.145Z,93.69
2023-01-06T02:32:59.131Z,93.18
2023-01-06T02:33:59.117Z,93.89
2023-01-06T02:34:59.131Z,94.20
2023-01-06T02:35:59.096Z,93.59
2023-01-06T02:36:59.089Z,93.18
2023-01-06T02:37:59.077Z,93.69
2023-01-06T02:38:59.064Z,94.65
2023-01-06T02:39:59.060Z,95.32
2023-01-06T02:40:59.055Z,95.32
2023-01-06T02:41:59.025Z,94.91
2023-01-06T02:42:59.026Z,94.40
2023-01-06T02:43:59.011Z,93.99
2023-01-06T02:44:58.987Z,94.26
2023-01-06T02:45:59.006Z,93.64
2023-01-06T02:46:58.968Z,93.24
2023-01-06T02:47:58.957Z,92.42
2023-01-06T02:48:58.946Z,92.93
2023-01-06T02:49:58.936Z,93.44
2023-01-06T02:50:58.929Z,93.24
2023-01-06T02:51:58.943Z,93.54
2023-01-06T02:52:58.894Z,92.87
2023-01-06T02:53:58.887Z,93.89
2023-01-06T02:54:58.876Z,93.69
2023-01-06T02:55:58.884Z,94.81
2023-01-06T02:56:58.854Z,94.87
2023-01-06T02:57:58.865Z,93.64
2023-01-06T02:58:58.843Z,94.50
2023-01-06T02:59:58.833Z,94.30
2023-01-06T03:00:58.806Z,95.47
2023-01-06T03:01:58.862Z,96.64
2023-01-06T03:02:58.845Z,95.83
2023-01-06T03:03:58.776Z,95.52
2023-01-06T03:04:58.813Z,96.75
2023-01-06T03:05:58.763Z,96.03
2023-01-06T03:06:58.748Z,95.62
2023-01-06T03:07:58.752Z,95.21
2023-01-06T03:08:58.751Z,95.32
2023-01-06T03:09:58.706Z,95.73
2023-01-06T03:10:58.696Z,95.01
2023-01-06T03:11:58.697Z,95.62
2023-01-06T03:12:58.667Z,95.32
2023-01-06T03:13:58.687Z,94.60
2023-01-06T03:14:58.643Z,94.91
2023-01-06T03:15:58.679Z,95.73
2023-01-06T03:16:58.629Z,95.42
2023-01-06T03:17:58.627Z,94.81
2023-01-06T03:18:58.596Z,95.62
2023-01-06T03:19:58.606Z,95.87
2023-01-06T03:20:58.582Z,97.00
2023-01-06T03:21:58.581Z,96.34
2023-01-06T03:22:58.562Z,96.28
2023-01-06T03:23:58.543Z,96.64
2023-01-06T03:24:58.537Z,95.93
2023-01-06T03:25:58.553Z,94.50
2023-01-06T03:26:58.513Z,95.73
2023-01-06T03:27:58.496Z,95.62
2023-01-06T03:28:58.490Z,95.21
2023-01-06T03:29:58.486Z,94.60
2023-01-06T03:30:58.482Z,95.52
2023-01-06T03:31:58.553Z,96.08
2023-01-06T03:32:58.447Z,96.75
2023-01-06T03:33:58.439Z,96.14
2023-01-06T03:34:58.424Z,94.91
2023-01-06T03:35:58.417Z,94.76
2023-01-06T03:36:58.423Z,93.74
2023-01-06T03:37:58.413Z,93.24
2023-01-06T03:38:58.455Z,93.24
2023-01-06T03:39:58.367Z,93.74
2023-01-06T03:40:58.347Z,93.28
2023-01-06T03:41:58.348Z,93.95
2023-01-06T03:42:58.352Z,93.89
2023-01-06T03:43:58.330Z,94.71
2023-01-06T03:44:58.311Z,94.50
2023-01-06T03:45:58.297Z,95.32
2023-01-06T03:46:58.296Z,94.56
2023-01-06T03:47:58.268Z,93.79
2023-01-06T03:48:58.289Z,95.21
2023-01-06T03:49:58.247Z,95.26
2023-01-06T03:50:58.239Z,96.38
2023-01-06T03:51:58.301Z,95.62
2023-01-06T03:52:58.217Z,95.32
2023-01-06T03:53:58.214Z,93.89
2023-01-06T03:54:58.207Z,92.77
2023-01-06T03:55:58.177Z,92.57
2023-01-06T03:56:58.169Z,93.02
2023-01-06T03:57:58.159Z,93.43
2023-01-06T03:58:58.155Z,93.02
2023-01-06T03:59:58.136Z,92.41
2023-01-06T04:00:58.163Z,92.71
2023-01-06T04:01:58.164Z,92.61
2023-01-06T04:02:58.107Z,94.38
2023-01-06T04:03:58.155Z,95.36
2023-01-06T04:04:58.078Z,95.06
2023-01-06T04:05:58.069Z,94.14
2023-01-06T04:06:58.067Z,93.73
2023-01-06T04:07:58.055Z,93.28
2023-01-06T04:08:58.028Z,92.97
2023-01-06T04:09:58.017Z,92.61
2023-01-06T04:10:58.007Z,93.93
2023-01-06T04:11:58.026Z,93.52
2023-01-06T04:12:57.992Z,93.89
2023-01-06T04:13:57.980Z,94.20
2023-01-06T04:14:57.968Z,94.40
2023-01-06T04:15:57.981Z,93.79
2023-01-06T04:16:57.936Z,93.07
2023-01-06T04:17:57.972Z,94.20
2023-01-06T04:18:57.910Z,94.04
2023-01-06T04:19:57.927Z,94.09
2023-01-06T04:20:57.890Z,93.28
2023-01-06T04:21:57.894Z,93.89
2023-01-06T04:22:57.873Z,93.69
2023-01-06T04:23:57.888Z,93.48
2023-01-06T04:24:57.855Z,94.24
2023-01-06T04:25:57.838Z,94.95
2023-01-06T04:26:57.821Z,94.40
2023-01-06T04:27:57.814Z,93.69
2023-01-06T04:28:57.802Z,93.99
2023-01-06T04:29:57.809Z,93.99
2023-01-06T04:30:57.781Z,93.89
2023-01-06T04:31:57.774Z,93.38
2023-01-06T04:32:57.754Z,94.34
2023-01-06T04:33:57.748Z,94.09
2023-01-06T04:34:57.748Z,94.30
2023-01-06T04:35:57.720Z,93.38
2023-01-06T04:36:57.709Z,93.89
2023-01-06T04:37:57.704Z,94.09
2023-01-06T04:38:57.708Z,94.30
2023-01-06T04:39:57.676Z,93.89
2023-01-06T04:40:57.689Z,94.09
2023-01-06T04:41:57.654Z,94.60
2023-01-06T04:42:57.638Z,94.05
2023-01-06T04:43:58.214Z,93.33
2023-01-06T04:44:57.609Z,92.77
2023-01-06T04:45:57.621Z,93.99
2023-01-06T04:46:57.616Z,94.20
2023-01-06T04:47:57.579Z,93.64
2023-01-06T04:48:57.569Z,93.13
2023-01-06T04:49:57.559Z,92.32
2023-01-06T04:50:57.545Z,93.59
2023-01-06T04:51:57.537Z,94.30
2023-01-06T04:52:57.548Z,95.77
2023-01-06T04:53:57.523Z,96.44
2023-01-06T04:54:57.498Z,95.42
2023-01-06T04:55:57.489Z,94.71
2023-01-06T04:56:57.485Z,94.81
2023-01-06T04:57:57.479Z,94.91
2023-01-06T04:58:57.479Z,95.62
2023-01-06T04:59:57.447Z,95.62
2023-01-06T05:00:57.477Z,94.66
2023-01-06T05:01:57.450Z,93.95
2023-01-06T05:02:57.407Z,93.03
2023-01-06T05:03:57.454Z,93.64
2023-01-06T05:04:57.398Z,93.33
2023-01-06T05:05:57.369Z,93.95
2023-01-06T05:06:57.365Z,94.87
2023-01-06T05:07:57.347Z,94.35
2023-01-06T05:08:57.338Z,93.24
2023-01-06T05:09:57.329Z,93.95
2023-01-06T05:10:57.341Z,94.20
2023-01-06T05:11:57.308Z,94.71
2023-01-06T05:12:57.292Z,95.42
2023-01-06T05:13:57.278Z,95.68
2023-01-06T05:14:57.269Z,94.76
2023-01-06T05:15:57.286Z,94.15
2023-01-06T05:16:57.249Z,93.24
2023-01-06T05:17:57.228Z,94.60
2023-01-06T05:18:57.253Z,95.37
2023-01-06T05:19:57.218Z,94.46
2023-01-06T05:20:57.199Z,93.64
2023-01-06T05:21:57.218Z,93.44
2023-01-06T05:22:57.177Z,93.89
2023-01-06T05:23:57.171Z,95.28
2023-01-06T05:24:57.152Z,94.05
2023-01-06T05:25:57.141Z,93.44
2023-01-06T05:26:57.129Z,93.85
2023-01-06T05:27:57.159Z,93.54
2023-01-06T05:28:57.108Z,93.24
2023-01-06T05:29:57.099Z,93.44
2023-01-06T05:30:57.088Z,93.95
2023-01-06T05:31:57.103Z,93.74
2023-01-06T05:32:57.069Z,93.64
2023-01-06T05:33:57.069Z,93.09
2023-01-06T05:34:57.046Z,92.48
2023-01-06T05:35:57.028Z,92.68
2023-01-06T05:36:57.027Z,92.38
2023-01-06T05:37:57.008Z,92.79
2023-01-06T05:38:57.057Z,92.68
2023-01-06T05:39:57.009Z,92.18
2023-01-06T05:40:56.982Z,91.97
2023-01-06T05:41:56.959Z,91.77
2023-01-06T05:42:56.949Z,91.56
2023-01-06T05:43:56.956Z,91.26
2023-01-06T05:44:56.930Z,91.46
2023-01-06T05:45:56.996Z,91.20
2023-01-06T05:46:56.897Z,92.11
2023-01-06T05:47:56.900Z,92.11
2023-01-06T05:48:56.887Z,92.11
2023-01-06T05:49:56.879Z,91.40
2023-01-06T05:50:56.869Z,91.61
2023-01-06T05:51:56.880Z,91.40
2023-01-06T05:52:58.720Z,90.99
2023-01-06T05:53:56.819Z,90.79
2023-01-06T05:54:56.818Z,90.48
2023-01-06T05:55:56.811Z,90.59
2023-01-06T05:56:56.788Z,90.34
2023-01-06T05:57:56.798Z,89.83
2023-01-06T05:58:56.760Z,89.94
2023-01-06T05:59:56.758Z,90.03
2023-01-06T06:00:56.751Z,90.18
2023-01-06T06:01:56.750Z,89.87
2023-01-06T06:02:56.738Z,89.97
2023-01-06T06:03:56.778Z,90.03
2023-01-06T06:04:56.713Z,89.97
2023-01-06T06:05:56.702Z,89.77
2023-01-06T06:06:56.672Z,89.63
2023-01-06T06:07:56.679Z,89.77
2023-01-06T06:08:56.669Z,89.73
2023-01-06T06:09:56.639Z,89.57
2023-01-06T06:10:56.631Z,89.26
2023-01-06T06:11:56.640Z,89.47
2023-01-06T06:12:56.600Z,89.36
2023-01-06T06:13:56.604Z,89.06
2023-01-06T06:14:56.620Z,88.85
2023-01-06T06:15:56.577Z,89.06
2023-01-06T06:16:56.557Z,88.75
2023-01-06T06:17:56.553Z,88.34
2023-01-06T06:18:56.537Z,88.39
2023-01-06T06:19:56.528Z,88.59
2023-01-06T06:20:56.540Z,87.47
2023-01-06T06:21:56.505Z,87.37
2023-01-06T06:22:56.489Z,87.26
2023-01-06T06:23:56.486Z,87.16
2023-01-06T06:24:56.470Z,87.16
2023-01-06T06:25:56.461Z,86.96
2023-01-06T06:26:56.459Z,86.45
2023-01-06T06:27:56.441Z,85.53
2023-01-06T06:28:56.423Z,84.66
2023-01-06T06:29:56.461Z,83.70
2023-01-06T06:30:56.500Z,84.11
2023-01-06T06:31:56.389Z,83.80
2023-01-06T06:32:56.404Z,83.29
2023-01-06T06:33:56.397Z,82.51
2023-01-06T06:34:56.360Z,81.49
2023-01-06T06:35:56.343Z,80.54
2023-01-06T06:36:56.328Z,79.82
2023-01-06T06:37:56.490Z,79.52
2023-01-06T06:38:56.310Z,79.07
2023-01-06T06:39:56.290Z,79.17
2023-01-06T06:40:56.289Z,78.87
2023-01-06T06:41:56.282Z,78.53
2023-01-06T06:42:56.260Z,78.12
2023-01-06T06:43:56.267Z,78.16
2023-01-06T06:44:56.249Z,78.36
2023-01-06T06:45:56.296Z,77.75
2023-01-06T06:46:56.241Z,77.30
2023-01-06T06:47:56.200Z,77.10
2023-01-06T06:48:56.225Z,76.79
2023-01-06T06:49:56.224Z,77.20
2023-01-06T06:50:56.172Z,77.40
2023-01-06T06:51:56.187Z,77.30
2023-01-06T06:52:56.165Z,77.40
2023-01-06T06:53:56.130Z,78.22
2023-01-06T06:54:56.164Z,78.32
2023-01-06T06:55:56.121Z,78.42
2023-01-06T06:56:56.100Z,78.32
2023-01-06T06:57:56.080Z,78.63
2023-01-06T06:58:56.079Z,78.83
2023-01-06T06:59:56.060Z,79.03
2023-01-06T07:00:56.070Z,78.93
2023-01-06T07:01:56.150Z,78.93
2023-01-06T07:02:56.031Z,79.34
2023-01-06T07:03:56.022Z,79.24
2023-01-06T07:04:56.010Z,79.54
2023-01-06T07:05:56.021Z,79.64
2023-01-06T07:06:55.980Z,80.16
2023-01-06T07:07:55.971Z,80.26
2023-01-06T07:08:55.961Z,80.16
2023-01-06T07:09:55.951Z,80.05
2023-01-06T07:10:55.942Z,79.79
2023-01-06T07:11:55.941Z,79.79
2023-01-06T07:12:55.911Z,79.85
2023-01-06T07:13:55.901Z,80.09
2023-01-06T07:14:55.892Z,80.60
2023-01-06T07:15:55.920Z,80.60
2023-01-06T07:16:55.913Z,80.50
2023-01-06T07:17:55.866Z,80.50
2023-01-06T07:18:55.849Z,80.29
2023-01-06T07:19:55.829Z,80.29
2023-01-06T07:20:55.826Z,79.68
2023-01-06T07:21:55.829Z,79.58
2023-01-06T07:22:55.821Z,79.79
2023-01-06T07:23:55.802Z,79.07
2023-01-06T07:24:55.780Z,79.27
2023-01-06T07:25:55.789Z,79.38
2023-01-06T07:26:55.747Z,79.41
2023-01-06T07:27:55.776Z,79.79
2023-01-06T07:28:55.750Z,79.68
2023-01-06T07:29:55.723Z,79.54
2023-01-06T07:30:55.742Z,79.54
2023-01-06T07:31:55.702Z,79.03
2023-01-06T07:32:55.689Z,78.87
2023-01-06T07:33:55.691Z,79.17
2023-01-06T07:34:55.667Z,79.38
2023-01-06T07:35:55.649Z,79.03
2023-01-06T07:36:55.648Z,78.36
2023-01-06T07:37:58.218Z,78.83
2023-01-06T07:38:55.620Z,79.14
2023-01-06T07:39:55.628Z,79.24
2023-01-06T07:40:55.592Z,79.14
2023-01-06T07:41:55.581Z,79.14
2023-01-06T07:42:55.577Z,79.03
2023-01-06T07:43:55.570Z,79.24
2023-01-06T07:44:55.554Z,79.03
2023-01-06T07:45:55.605Z,78.53
2023-01-06T07:46:55.521Z,78.93
2023-01-06T07:47:55.513Z,78.73
2023-01-06T07:48:55.503Z,78.63
2023-01-06T07:49:55.502Z,78.32
2023-01-06T07:50:55.504Z,78.12
2023-01-06T07:51:55.490Z,77.71
2023-01-06T07:52:55.461Z,78.05
2023-01-06T07:53:55.441Z,79.00
2023-01-06T07:54:55.430Z,80.19
2023-01-06T07:55:55.432Z,80.91
2023-01-06T07:56:55.445Z,80.80
2023-01-06T07:57:55.453Z,81.93
2023-01-06T07:58:55.392Z,82.64
2023-01-06T07:59:55.380Z,82.23
2023-01-06T08:00:55.371Z,82.43
2023-01-06T08:01:55.474Z,83.25
2023-01-06T08:02:55.396Z,83.04
2023-01-06T08:03:55.323Z,83.25
2023-01-06T08:04:55.321Z,83.56
2023-01-06T08:05:55.418Z,83.65
2023-01-06T08:06:55.307Z,83.51
2023-01-06T08:07:55.302Z,83.11
2023-01-06T08:08:55.293Z,83.35
2023-01-06T08:09:55.265Z,83.42
2023-01-06T08:10:55.251Z,83.65
2023-01-06T08:11:55.256Z,83.76
2023-01-06T08:12:55.236Z,84.27
2023-01-06T08:13:55.225Z,84.61
2023-01-06T08:14:55.218Z,84.92
2023-01-06T08:15:55.231Z,85.02
2023-01-06T08:16:55.187Z,84.78
2023-01-06T08:17:55.170Z,84.58
2023-01-06T08:18:55.164Z,84.37
2023-01-06T08:19:55.210Z,84.06
2023-01-06T08:20:55.133Z,84.06
2023-01-06T08:21:55.126Z,84.47
2023-01-06T08:22:55.134Z,84.47
2023-01-06T08:23:55.128Z,84.37
2023-01-06T08:24:55.117Z,84.78
2023-01-06T08:25:55.130Z,84.98
2023-01-06T08:26:55.063Z,84.58
2023-01-06T08:27:55.056Z,85.43
2023-01-06T08:28:55.044Z,85.13
2023-01-06T08:29:55.029Z,85.28
2023-01-06T08:30:55.350Z,85.08
2023-01-06T08:32:09.309Z,84.92
2023-01-06T08:32:56.000Z,85.22
2023-01-06T08:33:54.989Z,85.33
2023-01-06T08:34:54.984Z,85.63
2023-01-06T08:35:54.967Z,85.84
2023-01-06T08:36:54.953Z,85.22
2023-01-06T08:37:54.962Z,85.94
2023-01-06T08:38:54.931Z,85.94
2023-01-06T08:39:54.909Z,85.33
2023-01-06T08:40:54.912Z,85.74
2023-01-06T08:41:54.892Z,85.63
2023-01-06T08:42:54.902Z,85.33
2023-01-06T08:43:54.872Z,85.33
2023-01-06T08:44:54.878Z,85.63
2023-01-06T08:45:54.841Z,85.60
2023-01-06T08:46:54.842Z,85.63
2023-01-06T08:47:54.831Z,85.74
2023-01-06T08:48:54.841Z,86.04
2023-01-06T08:49:54.816Z,86.04
2023-01-06T08:50:54.791Z,85.49
2023-01-06T08:51:54.782Z,85.19
2023-01-06T08:52:54.774Z,84.88
2023-01-06T08:53:54.773Z,85.39
2023-01-06T08:54:54.762Z,85.08
2023-01-06T08:55:54.732Z,85.53
2023-01-06T08:56:54.731Z,85.53
2023-01-06T08:57:55.052Z,85.08
2023-01-06T08:58:54.704Z,85.53
2023-01-06T08:59:54.684Z,85.33
2023-01-06T09:00:54.691Z,84.78
2023-01-06T09:01:54.771Z,84.92
2023-01-06T09:03:51.390Z,85.39
2023-01-06T09:04:51.411Z,84.78
2023-01-06T09:05:51.400Z,84.47
2023-01-06T09:06:51.362Z,84.43
2023-01-06T09:07:51.350Z,84.17
2023-01-06T09:08:51.342Z,84.58
2023-01-06T09:09:51.337Z,84.37
2023-01-06T09:10:51.308Z,84.17
2023-01-06T09:11:51.341Z,84.17
2023-01-06T09:12:51.318Z,83.86
2023-01-06T09:13:51.276Z,84.17
2023-01-06T09:14:51.269Z,84.37
2023-01-06T09:15:51.265Z,83.72
2023-01-06T09:16:51.248Z,83.35
2023-01-06T09:17:51.245Z,84.17
2023-01-06T09:18:51.220Z,84.17
2023-01-06T09:19:51.209Z,83.96
2023-01-06T09:20:51.198Z,83.96
2023-01-06T09:21:51.182Z,83.56
2023-01-06T09:22:51.216Z,83.96
2023-01-06T09:23:51.158Z,83.76
2023-01-06T09:24:51.156Z,83.62
2023-01-06T09:25:51.136Z,83.31
2023-01-06T09:26:51.124Z,83.15
2023-01-06T09:27:51.114Z,83.65
2023-01-06T09:28:51.155Z,83.45
2023-01-06T09:29:51.096Z,83.11
2023-01-06T09:30:51.144Z,82.90
2023-01-06T09:31:51.076Z,82.50
2023-01-06T09:32:51.065Z,82.26
2023-01-06T09:33:51.059Z,82.05
2023-01-06T09:34:51.087Z,82.09
2023-01-06T09:35:51.035Z,82.56
2023-01-06T09:36:51.017Z,82.15
2023-01-06T09:37:51.011Z,82.05
2023-01-06T09:38:51.014Z,81.74
2023-01-06T09:39:50.978Z,81.44
2023-01-06T09:40:50.988Z,81.54
2023-01-06T09:41:50.957Z,81.74
2023-01-06T09:42:50.951Z,82.15
2023-01-06T09:43:50.962Z,81.71
2023-01-06T09:44:50.927Z,80.99
2023-01-06T09:45:50.928Z,80.63
2023-01-06T09:46:50.944Z,81.54
2023-01-06T09:47:50.889Z,81.34
2023-01-06T09:48:50.879Z,81.54
2023-01-06T09:49:50.874Z,80.83
2023-01-06T09:50:50.856Z,81.13
2023-01-06T09:51:50.892Z,80.99
2023-01-06T09:52:50.837Z,80.69
2023-01-06T09:53:50.817Z,80.79
2023-01-06T09:54:50.809Z,80.38
2023-01-06T09:55:50.797Z,80.38
2023-01-06T09:56:50.829Z,80.08
2023-01-06T09:57:50.838Z,79.88
2023-01-06T09:58:50.789Z,80.29
2023-01-06T09:59:50.764Z,80.08
2023-01-06T10:00:50.770Z,80.59
2023-01-06T10:01:50.900Z,80.32
2023-01-06T10:02:50.766Z,80.42
2023-01-06T10:03:50.745Z,80.79
2023-01-06T10:04:50.735Z,80.38
2023-01-06T10:05:50.725Z,80.49
2023-01-06T10:06:50.722Z,80.08
2023-01-06T10:07:50.679Z,80.08
2023-01-06T10:08:50.720Z,80.29
2023-01-06T10:09:50.689Z,80.49
2023-01-06T10:10:54.441Z,80.59
2023-01-06T10:11:50.618Z,79.88
2023-01-06T10:12:50.617Z,79.98
2023-01-06T10:13:50.601Z,79.98
2023-01-06T10:14:50.637Z,80.18
2023-01-06T10:15:50.596Z,80.76
2023-01-06T10:16:50.613Z,79.43
2023-01-06T10:17:50.550Z,79.43
2023-01-06T10:18:50.540Z,79.74
2023-01-06T10:19:50.569Z,78.48
2023-01-06T10:20:50.999Z,78.28
2023-01-06T10:21:50.576Z,79.02
2023-01-06T10:22:50.490Z,78.82
2023-01-06T10:23:50.482Z,79.13
2023-01-06T10:24:50.482Z,78.28
2023-01-06T10:25:50.461Z,78.38
2023-01-06T10:26:50.503Z,77.47
2023-01-06T10:27:50.446Z,78.28
2023-01-06T10:28:50.448Z,78.31
2023-01-06T10:29:50.454Z,78.78
2023-01-06T10:30:50.481Z,78.48
2023-01-06T10:31:50.399Z,78.21
2023-01-06T10:32:50.435Z,78.48
2023-01-06T10:33:50.371Z,78.38
2023-01-06T10:34:50.361Z,77.87
2023-01-06T10:35:50.351Z,78.38
2023-01-06T10:36:50.383Z,78.21
2023-01-06T10:37:50.364Z,78.28
2023-01-06T10:38:50.322Z,77.97
2023-01-06T10:39:50.327Z,77.97
2023-01-06T10:40:50.321Z,78.31
2023-01-06T10:41:50.270Z,78.48
2023-01-06T10:42:50.263Z,78.17
2023-01-06T10:43:50.280Z,78.08
2023-01-06T10:44:50.251Z,78.08
2023-01-06T10:45:50.234Z,77.22
2023-01-06T10:46:50.351Z,76.75
2023-01-06T10:47:50.210Z,77.26
2023-01-06T10:48:50.215Z,77.56
2023-01-06T10:49:50.228Z,78.21
2023-01-06T10:50:50.201Z,77.97
2023-01-06T10:51:50.160Z,77.81
2023-01-06T10:52:50.157Z,78.52
2023-01-06T10:53:50.138Z,78.31
2023-01-06T10:54:50.164Z,77.81
2023-01-06T10:55:50.213Z,77.81
2023-01-06T10:56:50.102Z,77.77
2023-01-06T10:57:50.102Z,77.77
2023-01-06T10:58:50.089Z,77.47
2023-01-06T10:59:50.061Z,77.16
2023-01-06T11:00:50.111Z,77.26
2023-01-06T11:01:50.185Z,76.95
2023-01-06T11:02:50.092Z,77.02
2023-01-06T11:03:50.071Z,77.16
2023-01-06T11:04:50.013Z,77.06
2023-01-06T11:05:50.004Z,76.86
2023-01-06T11:06:50.036Z,77.36
2023-01-06T11:07:50.069Z,77.56
2023-01-06T11:08:49.982Z,77.22
2023-01-06T11:09:49.980Z,77.33
2023-01-06T11:10:49.950Z,76.92
2023-01-06T11:11:49.923Z,76.51
2023-01-06T11:12:49.941Z,76.41
2023-01-06T11:13:49.956Z,76.41
2023-01-06T11:14:49.893Z,76.51
2023-01-06T11:15:49.933Z,76.07
2023-01-06T11:16:49.871Z,76.07
2023-01-06T11:17:49.882Z,76.07
2023-01-06T11:18:49.855Z,75.67
2023-01-06T11:19:49.843Z,75.80
2023-01-06T11:20:49.892Z,76.07
2023-01-06T11:21:49.836Z,75.36
2023-01-06T11:22:49.839Z,75.67
2023-01-06T11:23:49.799Z,75.76
2023-01-06T11:24:49.793Z,75.43
2023-01-06T11:25:49.812Z,75.67
2023-01-06T11:26:49.828Z,75.46
2023-01-06T11:27:49.771Z,75.46
2023-01-06T11:28:49.794Z,75.26
2023-01-06T11:29:49.724Z,75.76
2023-01-06T11:30:49.757Z,75.60
2023-01-06T11:31:49.780Z,75.80
2023-01-06T11:32:49.704Z,75.46
2023-01-06T11:33:49.671Z,75.87
2023-01-06T11:34:49.731Z,75.56
2023-01-06T11:35:49.673Z,75.36
2023-01-06T11:36:49.643Z,75.70
2023-01-06T11:37:49.636Z,75.97
2023-01-06T11:38:49.625Z,75.87
2023-01-06T11:39:55.832Z,75.93
2023-01-06T11:40:50.636Z,74.62
2023-01-06T11:41:49.585Z,74.88
2023-01-06T11:42:49.586Z,74.17
2023-01-06T11:43:51.734Z,74.48
2023-01-06T11:44:49.591Z,74.04
2023-01-06T11:45:49.736Z,73.73
2023-01-06T11:46:49.559Z,73.33
2023-01-06T11:47:49.514Z,73.02
2023-01-06T11:48:49.525Z,73.43
2023-01-06T11:49:49.491Z,73.02
2023-01-06T11:50:49.490Z,73.09
2023-01-06T11:51:49.493Z,72.89
2023-01-06T11:52:49.515Z,73.22
2023-01-06T11:53:49.455Z,72.82
2023-01-06T11:54:49.433Z,72.82
2023-01-06T11:55:49.423Z,72.85
2023-01-06T11:56:49.415Z,73.26
2023-01-06T11:57:49.394Z,73.22
2023-01-06T11:58:49.419Z,72.72
2023-01-06T11:59:49.384Z,72.82
2023-01-06T12:00:49.410Z,72.11
2023-01-06T12:01:49.550Z,72.31
2023-01-06T12:02:49.354Z,72.08
2023-01-06T12:03:49.364Z,71.47
2023-01-06T12:04:49.343Z,72.08
2023-01-06T12:05:49.350Z,71.26
2023-01-06T12:06:49.322Z,71.57
2023-01-06T12:07:49.322Z,71.37
2023-01-06T12:08:49.284Z,71.50
2023-01-06T12:09:49.285Z,71.88
2023-01-06T12:10:49.274Z,71.60
2023-01-06T12:11:49.253Z,71.57
2023-01-06T12:12:49.249Z,71.47
2023-01-06T12:14:08.325Z,71.47
2023-01-06T12:14:50.214Z,71.70
2023-01-06T12:15:49.206Z,71.91
2023-01-06T12:16:49.366Z,72.21
2023-01-06T12:17:49.228Z,71.70
2023-01-06T12:18:49.166Z,72.14
2023-01-06T12:19:49.162Z,72.11
2023-01-06T12:20:49.159Z,71.97
2023-01-06T12:21:49.127Z,70.96
2023-01-06T12:22:49.151Z,70.45
2023-01-06T12:23:49.105Z,70.72
2023-01-06T12:24:49.097Z,71.03
2023-01-06T12:25:49.084Z,70.86
2023-01-06T12:26:49.086Z,70.76
2023-01-06T12:27:49.094Z,71.16
2023-01-06T12:28:49.049Z,70.52
2023-01-06T12:29:49.035Z,70.21
2023-01-06T12:30:49.074Z,70.21
2023-01-06T12:31:49.014Z,70.56
2023-01-06T12:32:49.013Z,71.47
2023-01-06T12:33:49.036Z,71.03
2023-01-06T12:34:48.997Z,71.03
2023-01-06T12:35:49.847Z,70.12
2023-01-06T12:36:48.975Z,70.01
2023-01-06T12:37:48.955Z,70.32
2023-01-06T12:38:48.945Z,69.92
2023-01-06T12:39:48.949Z,70.05
2023-01-06T12:40:48.918Z,70.86
2023-01-06T12:41:48.904Z,70.62
2023-01-06T12:42:48.908Z,70.76
2023-01-06T12:43:48.886Z,71.16
2023-01-06T12:44:48.917Z,70.76
2023-01-06T12:45:56.594Z,70.65
2023-01-06T12:46:49.847Z,70.32
2023-01-06T12:47:48.834Z,70.72
2023-01-06T12:48:48.857Z,69.92
2023-01-06T12:49:48.807Z,70.72
2023-01-06T12:50:48.825Z,70.72
2023-01-06T12:51:48.855Z,69.81
2023-01-06T12:52:48.776Z,69.88